sensor_id;sensor_type;location;lat;lon;timestamp;pressure;altitude;pressure_sealevel;temperature;humidity
49461;BME280;35355;49.198;-0.368;2023-02-17T00:02:07;101981.31;;;11.38;88.55
49461;BME280;35355;49.198;-0.368;2023-02-17T00:04:33;101987.63;;;11.38;88.42
49461;BME280;35355;49.198;-0.368;2023-02-17T00:06:59;101987.38;;;11.40;88.66
49461;BME280;35355;49.198;-0.368;2023-02-17T00:09:24;101978.94;;;11.41;88.31
49461;BME280;35355;49.198;-0.368;2023-02-17T00:11:51;101977.03;;;11.42;88.68
49461;BME280;35355;49.198;-0.368;2023-02-17T00:14:17;101987.75;;;11.44;88.60
49461;BME280;35355;49.198;-0.368;2023-02-17T00:16:42;101977.03;;;11.42;88.38
49461;BME280;35355;49.198;-0.368;2023-02-17T00:19:09;101981.22;;;11.45;88.39
49461;BME280;35355;49.198;-0.368;2023-02-17T00:21:52;101992.97;;;11.45;88.34
49461;BME280;35355;49.198;-0.368;2023-02-17T00:24:19;101997.63;;;11.45;88.16
49461;BME280;35355;49.198;-0.368;2023-02-17T00:26:44;101999.72;;;11.43;88.72
49461;BME280;35355;49.198;-0.368;2023-02-17T00:29:10;101994.75;;;11.39;88.62
49461;BME280;35355;49.198;-0.368;2023-02-17T00:31:35;101989.75;;;11.36;88.73
49461;BME280;35355;49.198;-0.368;2023-02-17T00:34:00;101995.81;;;11.38;88.82
49461;BME280;35355;49.198;-0.368;2023-02-17T00:36:26;101987.63;;;11.38;88.75
49461;BME280;35355;49.198;-0.368;2023-02-17T00:38:54;101990.94;;;11.40;88.52
49461;BME280;35355;49.198;-0.368;2023-02-17T00:41:21;101989.88;;;11.41;89.04
49461;BME280;35355;49.198;-0.368;2023-02-17T00:43:47;101980.00;;;11.40;88.92
49461;BME280;35355;49.198;-0.368;2023-02-17T00:46:13;101975.38;;;11.41;88.84
49461;BME280;35355;49.198;-0.368;2023-02-17T00:48:38;101975.03;;;11.37;89.04
49461;BME280;35355;49.198;-0.368;2023-02-17T00:51:04;101980.00;;;11.40;88.74
49461;BME280;35355;49.198;-0.368;2023-02-17T00:53:30;101983.56;;;11.41;89.16
49461;BME280;35355;49.198;-0.368;2023-02-17T00:55:55;101971.22;;;11.38;88.84
49461;BME280;35355;49.198;-0.368;2023-02-17T00:58:21;101976.06;;;11.36;88.81
49461;BME280;35355;49.198;-0.368;2023-02-17T01:00:46;101971.22;;;11.38;88.90
49461;BME280;35355;49.198;-0.368;2023-02-17T01:03:11;101969.56;;;11.37;89.00
49461;BME280;35355;49.198;-0.368;2023-02-17T01:05:45;101974.78;;;11.39;89.08
49461;BME280;35355;49.198;-0.368;2023-02-17T01:08:11;101968.34;;;11.33;88.41
49461;BME280;35355;49.198;-0.368;2023-02-17T01:10:38;101974.06;;;11.32;88.60
49461;BME280;35355;49.198;-0.368;2023-02-17T01:13:04;101973.00;;;11.33;89.16
49461;BME280;35355;49.198;-0.368;2023-02-17T01:15:35;101973.81;;;11.33;89.36
49461;BME280;35355;49.198;-0.368;2023-02-17T01:18:01;101980.97;;;11.34;88.99
49461;BME280;35355;49.198;-0.368;2023-02-17T01:20:26;101984.53;;;11.35;89.22
49461;BME280;35355;49.198;-0.368;2023-02-17T01:22:52;101980.97;;;11.34;89.26
49461;BME280;35355;49.198;-0.368;2023-02-17T01:25:18;101980.97;;;11.34;89.08
49461;BME280;35355;49.198;-0.368;2023-02-17T01:27:43;101987.00;;;11.36;89.07
49461;BME280;35355;49.198;-0.368;2023-02-17T01:30:09;101986.78;;;11.38;88.93
49461;BME280;35355;49.198;-0.368;2023-02-17T01:32:36;101972.88;;;11.39;89.06
49461;BME280;35355;49.198;-0.368;2023-02-17T01:35:01;101976.22;;;11.41;89.12
49461;BME280;35355;49.198;-0.368;2023-02-17T01:37:26;101973.09;;;11.38;88.85
49461;BME280;35355;49.198;-0.368;2023-02-17T01:39:52;101979.78;;;11.42;89.10
49461;BME280;35355;49.198;-0.368;2023-02-17T01:42:18;101983.94;;;11.45;89.42
49461;BME280;35355;49.198;-0.368;2023-02-17T01:48:02;101990.22;;;11.45;88.73
49461;BME280;35355;49.198;-0.368;2023-02-17T01:50:49;102000.09;;;11.46;89.32
49461;BME280;35355;49.198;-0.368;2023-02-17T01:53:21;101987.25;;;11.47;88.99
49461;BME280;35355;49.198;-0.368;2023-02-17T01:55:47;101979.78;;;11.42;89.00
49461;BME280;35355;49.198;-0.368;2023-02-17T01:58:15;101990.00;;;11.47;89.43
49461;BME280;35355;49.198;-0.368;2023-02-17T02:00:42;101973.59;;;11.47;89.36
49461;BME280;35355;49.198;-0.368;2023-02-17T02:03:09;101977.75;;;11.49;89.17
49461;BME280;35355;49.198;-0.368;2023-02-17T02:05:38;101977.19;;;11.47;89.26
49461;BME280;35355;49.198;-0.368;2023-02-17T02:08:05;101971.47;;;11.49;89.14
49461;BME280;35355;49.198;-0.368;2023-02-17T02:10:31;101975.25;;;11.48;89.00
49461;BME280;35355;49.198;-0.368;2023-02-17T02:12:56;101969.78;;;11.48;89.24
49461;BME280;35355;49.198;-0.368;2023-02-17T02:15:24;101967.66;;;11.50;89.34
49461;BME280;35355;49.198;-0.368;2023-02-17T02:18:01;101968.84;;;11.54;89.39
49461;BME280;35355;49.198;-0.368;2023-02-17T02:34:28;101956.94;;;11.60;88.34
49461;BME280;35355;49.198;-0.368;2023-02-17T02:39:31;101938.88;;;11.59;88.75
49461;BME280;35355;49.198;-0.368;2023-02-17T02:42:02;101949.34;;;11.62;88.90
49461;BME280;35355;49.198;-0.368;2023-02-17T02:44:29;101943.88;;;11.62;89.06
49461;BME280;35355;49.198;-0.368;2023-02-17T02:46:59;101935.06;;;11.60;88.82
49461;BME280;35355;49.198;-0.368;2023-02-17T02:49:26;101941.38;;;11.61;88.67
49461;BME280;35355;49.198;-0.368;2023-02-17T03:00:01;101924.13;;;11.60;88.93
49461;BME280;35355;49.198;-0.368;2023-02-17T03:02:47;101934.25;;;11.59;89.15
49461;BME280;35355;49.198;-0.368;2023-02-17T03:05:40;101925.47;;;11.57;88.73
49461;BME280;35355;49.198;-0.368;2023-02-17T03:08:19;101926.75;;;11.55;89.03
49461;BME280;35355;49.198;-0.368;2023-02-17T03:10:48;101926.75;;;11.55;89.20
49461;BME280;35355;49.198;-0.368;2023-02-17T03:13:15;101925.69;;;11.56;88.91
49461;BME280;35355;49.198;-0.368;2023-02-17T03:15:42;101922.97;;;11.56;89.54
49461;BME280;35355;49.198;-0.368;2023-02-17T03:18:07;101927.59;;;11.55;89.51
49461;BME280;35355;49.198;-0.368;2023-02-17T03:20:39;101927.59;;;11.55;89.26
49461;BME280;35355;49.198;-0.368;2023-02-17T03:23:07;101928.06;;;11.52;88.67
49461;BME280;35355;49.198;-0.368;2023-02-17T03:25:32;101926.63;;;11.50;88.99
49461;BME280;35355;49.198;-0.368;2023-02-17T03:27:58;101936.03;;;11.54;89.48
49461;BME280;35355;49.198;-0.368;2023-02-17T03:30:23;101943.16;;;11.55;89.08
49461;BME280;35355;49.198;-0.368;2023-02-17T03:32:48;101942.56;;;11.53;89.32
49461;BME280;35355;49.198;-0.368;2023-02-17T03:35:14;101944.84;;;11.56;89.23
49461;BME280;35355;49.198;-0.368;2023-02-17T03:37:39;101946.97;;;11.54;89.41
49461;BME280;35355;49.198;-0.368;2023-02-17T03:40:06;101944.22;;;11.54;89.26
49461;BME280;35355;49.198;-0.368;2023-02-17T03:42:32;101938.75;;;11.54;89.26
49461;BME280;35355;49.198;-0.368;2023-02-17T03:44:57;101946.38;;;11.52;89.36
49461;BME280;35355;49.198;-0.368;2023-02-17T03:47:22;101948.25;;;11.51;89.22
49461;BME280;35355;49.198;-0.368;2023-02-17T03:49:48;101941.97;;;11.51;89.66
49461;BME280;35355;49.198;-0.368;2023-02-17T03:52:14;101941.97;;;11.51;89.12
49461;BME280;35355;49.198;-0.368;2023-02-17T03:54:39;101948.50;;;11.50;89.27
49461;BME280;35355;49.198;-0.368;2023-02-17T03:57:05;101944.72;;;11.51;89.78
49461;BME280;35355;49.198;-0.368;2023-02-17T03:59:30;101952.91;;;11.51;89.47
49461;BME280;35355;49.198;-0.368;2023-02-17T04:01:55;101956.72;;;11.50;89.49
49461;BME280;35355;49.198;-0.368;2023-02-17T04:04:21;101950.66;;;11.48;89.42
49461;BME280;35355;49.198;-0.368;2023-02-17T04:06:46;101963.03;;;11.50;89.27
49461;BME280;35355;49.198;-0.368;2023-02-17T04:09:12;101958.84;;;11.48;89.38
49461;BME280;35355;49.198;-0.368;2023-02-17T04:11:37;101975.84;;;11.50;89.29
49461;BME280;35355;49.198;-0.368;2023-02-17T04:14:03;101975.25;;;11.48;89.18
49461;BME280;35355;49.198;-0.368;2023-02-17T04:16:28;101981.56;;;11.48;89.54
49461;BME280;35355;49.198;-0.368;2023-02-17T04:18:53;101982.03;;;11.45;89.79
49461;BME280;35355;49.198;-0.368;2023-02-17T04:21:19;101973.00;;;11.45;89.58
49461;BME280;35355;49.198;-0.368;2023-02-17T04:23:44;101969.78;;;11.48;89.54
49461;BME280;35355;49.198;-0.368;2023-02-17T04:26:10;101978.22;;;11.46;89.53
49461;BME280;35355;49.198;-0.368;2023-02-17T04:28:39;101969.56;;;11.49;89.73
49461;BME280;35355;49.198;-0.368;2023-02-17T04:31:05;101979.44;;;11.50;89.44
49461;BME280;35355;49.198;-0.368;2023-02-17T04:33:31;101984.03;;;11.50;89.59
49461;BME280;35355;49.198;-0.368;2023-02-17T04:35:56;101984.03;;;11.50;89.64
49461;BME280;35355;49.198;-0.368;2023-02-17T04:38:33;101985.47;;;11.52;89.48
49461;BME280;35355;49.198;-0.368;2023-02-17T04:40:58;101980.84;;;11.53;89.93
49461;BME280;35355;49.198;-0.368;2023-02-17T04:43:25;101981.44;;;11.55;89.80
49461;BME280;35355;49.198;-0.368;2023-02-17T04:45:50;101973.25;;;11.55;89.51
49461;BME280;35355;49.198;-0.368;2023-02-17T04:48:16;101982.28;;;11.55;89.74
49461;BME280;35355;49.198;-0.368;2023-02-17T04:50:42;101986.91;;;11.55;89.57
49461;BME280;35355;49.198;-0.368;2023-02-17T04:53:08;101986.69;;;11.56;89.96
49461;BME280;35355;49.198;-0.368;2023-02-17T04:55:33;101994.28;;;11.54;89.51
49461;BME280;35355;49.198;-0.368;2023-02-17T04:57:59;101992.38;;;11.55;89.66
49461;BME280;35355;49.198;-0.368;2023-02-17T05:00:24;101986.91;;;11.55;89.96
49461;BME280;35355;49.198;-0.368;2023-02-17T05:02:50;101993.22;;;11.55;89.92
49461;BME280;35355;49.198;-0.368;2023-02-17T05:05:15;101990.25;;;11.57;89.43
49461;BME280;35355;49.198;-0.368;2023-02-17T05:07:46;101997.38;;;11.58;90.13
49461;BME280;35355;49.198;-0.368;2023-02-17T05:10:13;101984.19;;;11.55;89.67
49461;BME280;35355;49.198;-0.368;2023-02-17T05:12:39;101991.91;;;11.58;90.10
49461;BME280;35355;49.198;-0.368;2023-02-17T05:15:05;101996.31;;;11.59;89.91
49461;BME280;35355;49.198;-0.368;2023-02-17T05:17:31;101995.22;;;11.60;89.66
49461;BME280;35355;49.198;-0.368;2023-02-17T05:19:57;101996.91;;;11.61;89.83
49461;BME280;35355;49.198;-0.368;2023-02-17T05:22:23;102001.31;;;11.62;90.03
49461;BME280;35355;49.198;-0.368;2023-02-17T05:24:48;102009.50;;;11.62;90.06
49461;BME280;35355;49.198;-0.368;2023-02-17T05:27:14;102001.31;;;11.62;90.14
49461;BME280;35355;49.198;-0.368;2023-02-17T05:29:39;102011.41;;;11.62;89.94
49461;BME280;35355;49.198;-0.368;2023-02-17T05:52:54;102024.34;;;10.88;89.14
49461;BME280;35355;49.198;-0.368;2023-02-17T05:55:19;102034.56;;;10.93;89.72
49461;BME280;35355;49.198;-0.368;2023-02-17T05:57:46;102038.03;;;11.00;89.85
49461;BME280;35355;49.198;-0.368;2023-02-17T06:00:12;102046.38;;;11.05;90.09
49461;BME280;35355;49.198;-0.368;2023-02-17T06:02:37;102043.53;;;11.12;90.07
49461;BME280;35355;49.198;-0.368;2023-02-17T06:05:03;102046.41;;;11.17;90.42
49461;BME280;35355;49.198;-0.368;2023-02-17T06:07:28;102048.22;;;11.23;90.20
49461;BME280;35355;49.198;-0.368;2023-02-17T06:09:53;102052.97;;;11.28;90.46
49461;BME280;35355;49.198;-0.368;2023-02-17T06:12:19;102050.84;;;11.30;90.78
49461;BME280;35355;49.198;-0.368;2023-02-17T06:14:44;102052.84;;;11.35;90.63
49461;BME280;35355;49.198;-0.368;2023-02-17T06:17:09;102041.69;;;11.36;90.46
49461;BME280;35355;49.198;-0.368;2023-02-17T06:19:35;102052.75;;;11.41;90.48
49461;BME280;35355;49.198;-0.368;2023-02-17T06:22:00;102056.94;;;11.44;90.72
49461;BME280;35355;49.198;-0.368;2023-02-17T06:24:26;102054.78;;;11.46;90.55
49461;BME280;35355;49.198;-0.368;2023-02-17T06:26:51;102048.03;;;11.49;90.58
49461;BME280;35355;49.198;-0.368;2023-02-17T06:29:16;102054.31;;;11.49;90.60
49461;BME280;35355;49.198;-0.368;2023-02-17T06:31:42;102060.13;;;11.53;90.78
49461;BME280;35355;49.198;-0.368;2023-02-17T06:34:07;102053.03;;;11.52;91.01
49461;BME280;35355;49.198;-0.368;2023-02-17T06:36:32;102056.34;;;11.54;90.57
49461;BME280;35355;49.198;-0.368;2023-02-17T06:38:58;102059.91;;;11.54;90.79
49461;BME280;35355;49.198;-0.368;2023-02-17T06:41:23;102060.75;;;11.55;90.87
49461;BME280;35355;49.198;-0.368;2023-02-17T06:43:49;102073.13;;;11.57;90.80
49461;BME280;35355;49.198;-0.368;2023-02-17T06:46:14;102067.41;;;11.59;90.82
49461;BME280;35355;49.198;-0.368;2023-02-17T06:48:39;102063.84;;;11.58;90.91
49461;BME280;35355;49.198;-0.368;2023-02-17T06:51:05;102059.22;;;11.59;90.59
49461;BME280;35355;49.198;-0.368;2023-02-17T06:53:30;102065.28;;;11.61;90.93
49461;BME280;35355;49.198;-0.368;2023-02-17T06:55:55;102069.69;;;11.62;90.58
49461;BME280;35355;49.198;-0.368;2023-02-17T06:58:21;102067.19;;;11.61;90.92
49461;BME280;35355;49.198;-0.368;2023-02-17T07:00:46;102074.28;;;11.62;90.52
49461;BME280;35355;49.198;-0.368;2023-02-17T07:03:12;102073.25;;;11.63;90.73
49461;BME280;35355;49.198;-0.368;2023-02-17T07:05:37;102079.53;;;11.63;90.61
49461;BME280;35355;49.198;-0.368;2023-02-17T07:08:04;102077.66;;;11.64;90.83
49461;BME280;35355;49.198;-0.368;2023-02-17T07:10:30;102084.75;;;11.65;90.41
49461;BME280;35355;49.198;-0.368;2023-02-17T07:12:56;102084.75;;;11.65;90.65
49461;BME280;35355;49.198;-0.368;2023-02-17T07:15:21;102081.44;;;11.63;90.51
49461;BME280;35355;49.198;-0.368;2023-02-17T07:17:46;102089.41;;;11.64;90.64
49461;BME280;35355;49.198;-0.368;2023-02-17T07:20:12;102087.72;;;11.63;90.64
49461;BME280;35355;49.198;-0.368;2023-02-17T07:22:37;102084.75;;;11.65;90.39
49461;BME280;35355;49.198;-0.368;2023-02-17T07:25:04;102097.38;;;11.66;90.42
49461;BME280;35355;49.198;-0.368;2023-02-17T07:27:29;102090.22;;;11.65;90.36
49461;BME280;35355;49.198;-0.368;2023-02-17T07:29:56;102096.56;;;11.65;90.74
49461;BME280;35355;49.198;-0.368;2023-02-17T07:32:21;102090.22;;;11.65;90.41
49461;BME280;35355;49.198;-0.368;2023-02-17T07:34:46;102092.75;;;11.66;90.24
49461;BME280;35355;49.198;-0.368;2023-02-17T07:37:12;102094.63;;;11.66;90.41
49461;BME280;35355;49.198;-0.368;2023-02-17T07:39:37;102089.41;;;11.64;90.45
49461;BME280;35355;49.198;-0.368;2023-02-17T07:42:03;102094.53;;;11.61;90.39
49461;BME280;35355;49.198;-0.368;2023-02-17T07:44:30;102089.06;;;11.61;90.58
49461;BME280;35355;49.198;-0.368;2023-02-17T07:46:56;102085.72;;;11.58;90.58
49461;BME280;35355;49.198;-0.368;2023-02-17T07:49:21;102090.84;;;11.55;90.56
49461;BME280;35355;49.198;-0.368;2023-02-17T07:51:46;102089.16;;;11.54;90.07
49461;BME280;35355;49.198;-0.368;2023-02-17T07:54:12;102093.81;;;11.53;90.49
49461;BME280;35355;49.198;-0.368;2023-02-17T07:56:38;102095.09;;;11.51;90.23
49461;BME280;35355;49.198;-0.368;2023-02-17T07:59:10;102100.56;;;11.51;90.30
49461;BME280;35355;49.198;-0.368;2023-02-17T08:01:36;102099.97;;;11.49;90.28
49461;BME280;35355;49.198;-0.368;2023-02-17T08:04:02;102091.38;;;11.45;90.45
49461;BME280;35355;49.198;-0.368;2023-02-17T08:06:29;102094.84;;;11.40;90.33
49461;BME280;35355;49.198;-0.368;2023-02-17T08:08:55;102100.31;;;11.40;90.47
49461;BME280;35355;49.198;-0.368;2023-02-17T08:11:39;102106.72;;;11.34;90.39
49461;BME280;35355;49.198;-0.368;2023-02-17T08:14:25;102106.31;;;11.31;90.58
49461;BME280;35355;49.198;-0.368;2023-02-17T08:16:52;102105.03;;;11.33;90.84
49461;BME280;35355;49.198;-0.368;2023-02-17T08:19:17;102105.03;;;11.33;90.83
49461;BME280;35355;49.198;-0.368;2023-02-17T08:21:43;102100.78;;;11.37;90.80
49461;BME280;35355;49.198;-0.368;2023-02-17T08:24:09;102104.47;;;11.43;90.80
49461;BME280;35355;49.198;-0.368;2023-02-17T08:26:35;102120.28;;;11.53;91.20
49461;BME280;35355;49.198;-0.368;2023-02-17T08:29:01;102115.78;;;11.58;90.78
49461;BME280;35355;49.198;-0.368;2023-02-17T08:31:29;102122.38;;;11.69;90.50
49461;BME280;35355;49.198;-0.368;2023-02-17T08:33:56;102118.22;;;11.79;90.47
49461;BME280;35355;49.198;-0.368;2023-02-17T08:36:23;102119.19;;;11.84;90.75
49461;BME280;35355;49.198;-0.368;2023-02-17T08:38:49;102117.84;;;11.87;90.01
49461;BME280;35355;49.198;-0.368;2023-02-17T08:41:19;102126.19;;;11.92;90.02
49461;BME280;35355;49.198;-0.368;2023-02-17T08:43:45;102130.41;;;11.95;90.30
49461;BME280;35355;49.198;-0.368;2023-02-17T08:46:11;102139.56;;;12.00;90.12
49461;BME280;35355;49.198;-0.368;2023-02-17T08:48:37;102140.50;;;12.06;89.45
49461;BME280;35355;49.198;-0.368;2023-02-17T08:51:04;102147.41;;;12.08;89.78
49461;BME280;35355;49.198;-0.368;2023-02-17T08:53:30;102144.19;;;12.11;89.26
49461;BME280;35355;49.198;-0.368;2023-02-17T08:55:55;102151.81;;;12.09;89.48
49461;BME280;35355;49.198;-0.368;2023-02-17T08:58:20;102154.31;;;12.11;89.13
49461;BME280;35355;49.198;-0.368;2023-02-17T09:00:46;102151.59;;;12.11;89.31
49461;BME280;35355;49.198;-0.368;2023-02-17T09:03:11;102149.19;;;12.15;88.76
49461;BME280;35355;49.198;-0.368;2023-02-17T09:05:37;102151.59;;;12.23;89.16
49461;BME280;35355;49.198;-0.368;2023-02-17T09:08:03;102148.94;;;12.28;89.08
49461;BME280;35355;49.198;-0.368;2023-02-17T09:10:28;102155.16;;;12.35;88.68
49461;BME280;35355;49.198;-0.368;2023-02-17T09:12:54;102163.25;;;12.42;89.03
49461;BME280;35355;49.198;-0.368;2023-02-17T09:15:20;102165.03;;;12.48;88.39
49461;BME280;35355;49.198;-0.368;2023-02-17T09:17:45;102180.97;;;12.51;88.03
49461;BME280;35355;49.198;-0.368;2023-02-17T09:20:11;102172.19;;;12.49;88.24
49461;BME280;35355;49.198;-0.368;2023-02-17T09:22:36;102183.97;;;12.50;88.18
49461;BME280;35355;49.198;-0.368;2023-02-17T09:25:03;102186.69;;;12.50;88.09
49461;BME280;35355;49.198;-0.368;2023-02-17T09:27:29;102190.25;;;12.50;88.04
49461;BME280;35355;49.198;-0.368;2023-02-17T09:29:55;102180.75;;;12.53;87.82
49461;BME280;35355;49.198;-0.368;2023-02-17T09:32:20;102180.88;;;12.58;87.96
49461;BME280;35355;49.198;-0.368;2023-02-17T09:34:45;102173.09;;;12.67;87.68
49461;BME280;35355;49.198;-0.368;2023-02-17T09:37:15;102190.34;;;12.79;87.19
49461;BME280;35355;49.198;-0.368;2023-02-17T09:39:42;102194.63;;;12.87;87.02
49461;BME280;35355;49.198;-0.368;2023-02-17T09:42:18;102188.66;;;12.90;86.91
49461;BME280;35355;49.198;-0.368;2023-02-17T09:44:48;102194.63;;;12.87;87.02
49461;BME280;35355;49.198;-0.368;2023-02-17T09:47:21;102202.75;;;12.81;86.82
49461;BME280;35355;49.198;-0.368;2023-02-17T09:49:53;102194.66;;;12.75;86.34
49461;BME280;35355;49.198;-0.368;2023-02-17T09:52:26;102209.66;;;12.72;86.64
49461;BME280;35355;49.198;-0.368;2023-02-17T09:55:16;102219.31;;;12.75;86.70
49461;BME280;35355;49.198;-0.368;2023-02-17T09:57:55;102227.41;;;12.81;86.47
49461;BME280;35355;49.198;-0.368;2023-02-17T10:00:32;102221.44;;;12.85;86.32
49461;BME280;35355;49.198;-0.368;2023-02-17T10:03:05;102229.28;;;12.93;86.03
49461;BME280;35355;49.198;-0.368;2023-02-17T10:05:42;102224.16;;;12.96;85.81
49461;BME280;35355;49.198;-0.368;2023-02-17T10:08:13;102231.19;;;13.04;85.43
49461;BME280;35355;49.198;-0.368;2023-02-17T10:10:57;102227.47;;;13.10;85.47
49461;BME280;35355;49.198;-0.368;2023-02-17T10:13:26;102226.47;;;13.16;84.99
49461;BME280;35355;49.198;-0.368;2023-02-17T10:15:58;102228.16;;;13.18;84.46
49461;BME280;35355;49.198;-0.368;2023-02-17T10:18:36;102242.19;;;13.21;84.91
49461;BME280;35355;49.198;-0.368;2023-02-17T10:21:06;102236.47;;;13.23;84.31
49461;BME280;35355;49.198;-0.368;2023-02-17T10:23:36;102240.41;;;13.27;83.99
49461;BME280;35355;49.198;-0.368;2023-02-17T10:29:36;102232.53;;;13.30;84.36
49461;BME280;35355;49.198;-0.368;2023-02-17T10:32:25;102240.28;;;13.33;84.38
49461;BME280;35355;49.198;-0.368;2023-02-17T10:37:41;102239.09;;;13.41;84.06
49461;BME280;35355;49.198;-0.368;2023-02-17T10:40:19;102242.03;;;13.51;83.52
49461;BME280;35355;49.198;-0.368;2023-02-17T10:42:46;102230.56;;;13.55;83.09
49461;BME280;35355;49.198;-0.368;2023-02-17T10:45:30;102239.97;;;13.59;83.39
49461;BME280;35355;49.198;-0.368;2023-02-17T10:48:10;102246.28;;;13.59;83.33
49461;BME280;35355;49.198;-0.368;2023-02-17T10:50:40;102248.41;;;13.69;82.91
49461;BME280;35355;49.198;-0.368;2023-02-17T10:53:30;102241.19;;;13.80;83.00
49461;BME280;35355;49.198;-0.368;2023-02-17T10:56:10;102246.16;;;13.83;82.69
49461;BME280;35355;49.198;-0.368;2023-02-17T11:01:10;102256.38;;;13.71;82.19
49461;BME280;35355;49.198;-0.368;2023-02-17T11:03:36;102241.97;;;13.63;82.26
49461;BME280;35355;49.198;-0.368;2023-02-17T11:06:22;102248.34;;;13.52;82.49
49461;BME280;35355;49.198;-0.368;2023-02-17T11:08:50;102234.78;;;13.45;82.59
49461;BME280;35355;49.198;-0.368;2023-02-17T11:11:22;102227.63;;;13.44;82.79
49461;BME280;35355;49.198;-0.368;2023-02-17T11:19:01;102223.91;;;13.50;82.49
49461;BME280;35355;49.198;-0.368;2023-02-17T11:21:28;102233.78;;;13.51;82.13
49461;BME280;35355;49.198;-0.368;2023-02-17T11:23:57;102211.94;;;13.57;82.51
49461;BME280;35355;49.198;-0.368;2023-02-17T11:26:25;102223.75;;;13.57;82.34
49461;BME280;35355;49.198;-0.368;2023-02-17T11:28:51;102218.78;;;13.54;81.81
49461;BME280;35355;49.198;-0.368;2023-02-17T11:31:28;102213.84;;;13.56;82.11
49461;BME280;35355;49.198;-0.368;2023-02-17T11:33:54;102208.63;;;13.55;81.83
49461;BME280;35355;49.198;-0.368;2023-02-17T11:36:26;102205.31;;;13.53;82.03
49461;BME280;35355;49.198;-0.368;2023-02-17T11:38:52;102219.25;;;13.51;81.83
49461;BME280;35355;49.198;-0.368;2023-02-17T11:41:17;102209.09;;;13.51;82.12
49461;BME280;35355;49.198;-0.368;2023-02-17T11:43:54;102204.19;;;13.54;82.20
49461;BME280;35355;49.198;-0.368;2023-02-17T11:46:34;102204.56;;;13.57;82.05
49461;BME280;35355;49.198;-0.368;2023-02-17T11:54:30;102233.41;;;13.60;81.82
49461;BME280;35355;49.198;-0.368;2023-02-17T11:59:48;102237.13;;;13.54;81.43
49461;BME280;35355;49.198;-0.368;2023-02-17T12:02:33;102222.13;;;13.44;81.62
49461;BME280;35355;49.198;-0.368;2023-02-17T12:08:21;102238.84;;;13.31;82.01
49461;BME280;35355;49.198;-0.368;2023-02-17T12:10:55;102238.16;;;13.24;81.80
49461;BME280;35355;49.198;-0.368;2023-02-17T12:27:04;102242.38;;;13.03;82.45
49461;BME280;35355;49.198;-0.368;2023-02-17T12:34:55;102233.91;;;13.04;82.07
49461;BME280;35355;49.198;-0.368;2023-02-17T12:37:29;102240.59;;;13.08;82.01
49461;BME280;35355;49.198;-0.368;2023-02-17T12:39:58;102246.91;;;13.09;82.10
49461;BME280;35355;49.198;-0.368;2023-02-17T12:42:30;102245.59;;;13.11;81.93
49461;BME280;35355;49.198;-0.368;2023-02-17T12:45:19;102232.47;;;13.13;82.13
49461;BME280;35355;49.198;-0.368;2023-02-17T12:48:01;102242.94;;;13.16;82.10
49461;BME280;35355;49.198;-0.368;2023-02-17T12:50:35;102246.78;;;13.15;81.88
49461;BME280;35355;49.198;-0.368;2023-02-17T12:53:07;102239.38;;;13.16;81.96
49461;BME280;35355;49.198;-0.368;2023-02-17T12:55:44;102235.81;;;13.15;81.97
49461;BME280;35355;49.198;-0.368;2023-02-17T12:58:27;102239.22;;;13.23;82.16
49461;BME280;35355;49.198;-0.368;2023-02-17T13:01:03;102234.34;;;13.25;81.63
49461;BME280;35355;49.198;-0.368;2023-02-17T13:03:31;102236.13;;;13.19;81.35
49461;BME280;35355;49.198;-0.368;2023-02-17T13:08:45;102234.50;;;13.06;81.57
49461;BME280;35355;49.198;-0.368;2023-02-17T13:11:30;102235.22;;;13.02;81.63
49461;BME280;35355;49.198;-0.368;2023-02-17T13:13:56;102247.97;;;12.96;81.45
49461;BME280;35355;49.198;-0.368;2023-02-17T13:16:23;102240.72;;;12.90;81.51
49461;BME280;35355;49.198;-0.368;2023-02-17T13:18:50;102252.75;;;12.89;81.95
49461;BME280;35355;49.198;-0.368;2023-02-17T13:23:59;102260.88;;;12.84;81.94
49461;BME280;35355;49.198;-0.368;2023-02-17T13:26:35;102263.84;;;12.82;82.01
49461;BME280;35355;49.198;-0.368;2023-02-17T13:29:08;102261.59;;;12.79;81.88
49461;BME280;35355;49.198;-0.368;2023-02-17T13:37:00;102256.84;;;12.62;82.04
49461;BME280;35355;49.198;-0.368;2023-02-17T13:41:58;102240.66;;;12.61;82.15
49461;BME280;35355;49.198;-0.368;2023-02-17T13:47:11;102239.44;;;12.57;82.28
49461;BME280;35355;49.198;-0.368;2023-02-17T13:49:38;102244.44;;;12.60;82.11
49461;BME280;35355;49.198;-0.368;2023-02-17T13:52:18;102241.22;;;12.63;81.87
49461;BME280;35355;49.198;-0.368;2023-02-17T13:55:03;102240.75;;;12.66;82.09
49461;BME280;35355;49.198;-0.368;2023-02-17T13:57:32;102242.53;;;12.72;82.01
49461;BME280;35355;49.198;-0.368;2023-02-17T14:21:57;102228.97;;;12.30;81.69
49461;BME280;35355;49.198;-0.368;2023-02-17T14:24:35;102223.72;;;12.28;81.79
49461;BME280;35355;49.198;-0.368;2023-02-17T14:27:05;102216.91;;;12.31;82.13
49461;BME280;35355;49.198;-0.368;2023-02-17T14:29:44;102222.16;;;12.33;81.85
49461;BME280;35355;49.198;-0.368;2023-02-17T14:32:31;102233.84;;;12.40;81.87
49461;BME280;35355;49.198;-0.368;2023-02-17T14:35:21;102232.53;;;12.42;81.72
49461;BME280;35355;49.198;-0.368;2023-02-17T14:37:47;102237.53;;;12.45;81.82
49461;BME280;35355;49.198;-0.368;2023-02-17T14:40:20;102240.88;;;12.48;81.86
49461;BME280;35355;49.198;-0.368;2023-02-17T14:42:47;102233.72;;;12.46;81.95
49461;BME280;35355;49.198;-0.368;2023-02-17T14:45:13;102232.19;;;12.51;81.42
49461;BME280;35355;49.198;-0.368;2023-02-17T14:47:40;102242.66;;;12.54;81.39
49461;BME280;35355;49.198;-0.368;2023-02-17T14:50:06;102233.59;;;12.53;81.38
49461;BME280;35355;49.198;-0.368;2023-02-17T14:52:32;102249.44;;;12.51;81.64
49461;BME280;35355;49.198;-0.368;2023-02-17T14:54:58;102239.78;;;12.49;81.20
49461;BME280;35355;49.198;-0.368;2023-02-17T14:57:26;102235.41;;;12.48;81.07
49461;BME280;35355;49.198;-0.368;2023-02-17T14:59:51;102234.06;;;12.50;81.61